Time;durP1;ratioP1;P1;durP2;ratioP2;P2;SDS_P1;SDS_P2;PMS_P1;PMS_P2;Temp;Humidity;BMP_temperature;BMP_pressure;BME280_temperature;BME280_humidity;BME280_pressure;Samples;Min_cycle;Max_cycle;Signal;HPM_P1;HPM_P2
2022/07/11 00:01:47;;;;;;;4.97;2.55;;;26.00;99.90;;;;;;1970378;72;21966;-73
2022/07/11 00:04:21;;;;;;;4.22;2.62;;;26.00;99.90;;;;;;1954688;72;21663;-72
2022/07/11 00:06:52;;;;;;;8.03;3.15;;;26.00;99.90;;;;;;1956987;72;21183;-72
2022/07/11 00:09:23;;;;;;;9.00;3.33;;;26.00;99.90;;;;;;1949143;72;21525;-73
2022/07/11 00:11:54;;;;;;;4.08;2.40;;;26.10;99.90;;;;;;1948395;72;21046;-73
2022/07/11 00:14:26;;;;;;;6.95;2.67;;;26.10;99.90;;;;;;1946484;72;21171;-73
2022/07/11 00:16:57;;;;;;;9.18;2.77;;;26.20;99.90;;;;;;1928407;72;21093;-73
2022/07/11 00:19:28;;;;;;;6.22;2.47;;;26.20;99.90;;;;;;1945748;72;21574;-72
2022/07/11 00:21:59;;;;;;;4.83;2.72;;;26.20;99.90;;;;;;1946811;72;21159;-72
2022/07/11 00:24:30;;;;;;;4.25;2.50;;;26.30;99.90;;;;;;1961389;72;21053;-72
2022/07/11 00:27:02;;;;;;;4.17;2.47;;;26.30;99.90;;;;;;1955399;72;21112;-72
2022/07/11 00:29:33;;;;;;;8.98;2.50;;;26.40;99.90;;;;;;1950893;72;21073;-73
2022/07/11 00:32:11;;;;;;;5.83;3.02;;;26.40;99.90;;;;;;1946013;73;21217;-73
2022/07/11 00:34:42;;;;;;;7.28;3.25;;;26.50;99.90;;;;;;1951192;72;21250;-73
2022/07/11 00:37:13;;;;;;;6.35;2.50;;;26.60;99.90;;;;;;1964392;72;21507;-74
2022/07/11 00:39:45;;;;;;;7.15;3.00;;;26.60;99.90;;;;;;1985766;72;21151;-73
2022/07/11 00:42:17;;;;;;;8.70;2.75;;;26.60;99.90;;;;;;1948342;72;21627;-73
2022/07/11 00:44:49;;;;;;;9.15;2.62;;;26.70;99.90;;;;;;1954122;72;21062;-74
2022/07/11 00:47:20;;;;;;;10.40;3.65;;;26.70;99.90;;;;;;1954917;72;21198;-73
2022/07/11 00:49:51;;;;;;;8.38;3.55;;;26.70;99.90;;;;;;1946781;72;21146;-74
2022/07/11 00:52:23;;;;;;;9.03;3.45;;;26.80;99.90;;;;;;1950144;73;21604;-73
2022/07/11 00:54:54;;;;;;;14.70;5.08;;;26.90;99.90;;;;;;1958820;72;21657;-73
2022/07/11 00:57:26;;;;;;;15.30;3.90;;;26.90;99.90;;;;;;1963114;72;21066;-74
2022/07/11 00:59:57;;;;;;;9.95;3.77;;;27.00;99.90;;;;;;1962835;72;21089;-73
2022/07/11 01:02:28;;;;;;;9.08;3.47;;;27.10;99.90;;;;;;1951251;72;21105;-73
2022/07/11 01:04:59;;;;;;;13.32;3.60;;;27.10;99.90;;;;;;1924262;73;21209;-73
2022/07/11 01:07:34;;;;;;;11.93;4.00;;;27.20;99.90;;;;;;1906655;75;21123;-73
2022/07/11 01:10:07;;;;;;;10.00;3.08;;;27.30;99.90;;;;;;1905504;74;21986;-73
2022/07/11 01:12:38;;;;;;;13.43;3.27;;;27.30;99.90;;;;;;1975906;72;21632;-72
2022/07/11 01:15:10;;;;;;;8.88;3.27;;;27.40;99.90;;;;;;1969475;72;21525;-73
2022/07/11 01:17:41;;;;;;;11.48;2.80;;;27.40;99.90;;;;;;1917165;73;21630;-73
2022/07/11 01:20:13;;;;;;;8.00;3.15;;;27.40;99.90;;;;;;1922410;73;21775;-73
2022/07/11 01:22:49;;;;;;;9.33;2.10;;;27.50;99.90;;;;;;1929038;73;21082;-73
2022/07/11 01:25:30;;;;;;;6.92;2.62;;;27.50;99.90;;;;;;1888417;75;21735;-73
2022/07/11 01:27:52;;;;;;;13.13;2.75;;;27.50;99.90;;;;;;1869858;75;21132;-73
2022/07/11 01:30:25;;;;;;;16.40;3.00;;;27.60;99.90;;;;;;1925289;73;21105;-73
2022/07/11 01:32:57;;;;;;;5.97;2.55;;;27.60;99.90;;;;;;1961397;72;21265;-73
2022/07/11 01:35:30;;;;;;;6.40;2.40;;;27.70;99.90;;;;;;1951910;72;21148;-73
2022/07/11 01:38:01;;;;;;;7.85;2.05;;;27.70;99.90;;;;;;1915490;74;21190;-73
2022/07/11 01:40:32;;;;;;;4.95;2.17;;;27.70;99.90;;;;;;1903304;73;21064;-73
2022/07/11 01:43:03;;;;;;;4.00;1.75;;;27.70;99.90;;;;;;1932916;73;21062;-74
2022/07/11 01:45:34;;;;;;;4.08;2.20;;;27.70;99.90;;;;;;1895919;74;22457;-73
2022/07/11 01:48:05;;;;;;;4.00;1.62;;;27.70;99.90;;;;;;1914497;73;21627;-73
2022/07/11 01:50:36;;;;;;;4.10;1.90;;;27.70;99.90;;;;;;1901835;74;21168;-73
2022/07/11 01:53:07;;;;;;;6.50;1.80;;;27.70;99.90;;;;;;1887423;74;21774;-73
2022/07/11 01:55:41;;;;;;;5.95;1.50;;;27.70;99.90;;;;;;1926662;74;21188;-72
2022/07/11 01:58:16;;;;;;;4.12;1.95;;;27.70;99.90;;;;;;1892216;75;21231;-71
2022/07/11 02:00:47;;;;;;;2.87;1.65;;;27.70;99.90;;;;;;1867388;74;21208;-73
2022/07/11 02:03:19;;;;;;;7.22;2.42;;;27.70;99.90;;;;;;1918344;74;21188;-72
2022/07/11 02:05:50;;;;;;;6.62;1.85;;;27.70;99.90;;;;;;1925246;73;21606;-73
2022/07/11 02:08:21;;;;;;;5.83;1.72;;;27.80;99.90;;;;;;1922861;73;21608;-73
2022/07/11 02:10:53;;;;;;;5.08;1.60;;;27.80;99.90;;;;;;1919355;74;21593;-73
2022/07/11 02:13:24;;;;;;;4.60;1.67;;;27.80;99.90;;;;;;1882380;75;21161;-73
2022/07/11 02:15:56;;;;;;;6.92;1.80;;;27.90;99.90;;;;;;1868639;75;21251;-72
2022/07/11 02:18:28;;;;;;;5.05;1.45;;;28.00;99.90;;;;;;1897968;74;21637;-71
2022/07/11 02:20:59;;;;;;;2.05;1.40;;;28.00;99.90;;;;;;1862914;75;21550;-71
2022/07/11 02:23:30;;;;;;;5.72;1.70;;;28.10;99.90;;;;;;1923331;74;21721;-71
2022/07/11 02:26:01;;;;;;;3.10;1.35;;;28.20;99.90;;;;;;1929424;74;21612;-71
2022/07/11 02:28:34;;;;;;;3.58;1.40;;;28.20;99.90;;;;;;1908522;74;21126;-72
2022/07/11 02:31:05;;;;;;;5.80;1.40;;;28.30;99.90;;;;;;1896643;74;21083;-72
2022/07/11 02:33:36;;;;;;;3.67;1.62;;;28.30;99.90;;;;;;1900729;74;21667;-72
2022/07/11 02:36:07;;;;;;;6.55;1.42;;;28.40;99.90;;;;;;1883795;76;21602;-71
2022/07/11 02:38:40;;;;;;;5.35;1.67;;;28.40;99.90;;;;;;1884193;75;21471;-71
2022/07/11 02:41:12;;;;;;;2.85;1.22;;;28.40;99.90;;;;;;1899012;75;21149;-71
2022/07/11 02:43:43;;;;;;;2.12;1.30;;;28.40;99.90;;;;;;1908906;75;21467;-73
2022/07/11 02:46:14;;;;;;;4.00;1.92;;;28.40;99.90;;;;;;1888438;75;21107;-72
2022/07/11 02:48:45;;;;;;;6.03;1.25;;;28.40;99.90;;;;;;1904112;75;21036;-73
2022/07/11 02:51:17;;;;;;;7.08;1.52;;;28.40;99.90;;;;;;1887289;75;21114;-73
2022/07/11 02:53:48;;;;;;;5.30;1.70;;;28.50;99.90;;;;;;1884762;75;21162;-72
2022/07/11 02:56:19;;;;;;;3.72;1.20;;;28.50;99.90;;;;;;1888716;75;21687;-72
2022/07/11 02:58:51;;;;;;;4.17;1.25;;;28.50;99.90;;;;;;1927045;73;21686;-72
2022/07/11 03:01:22;;;;;;;2.47;1.40;;;28.50;99.90;;;;;;1948064;73;21209;-71
2022/07/11 03:03:53;;;;;;;4.85;1.47;;;28.60;99.90;;;;;;1926588;73;21204;-73
2022/07/11 03:06:25;;;;;;;4.17;1.62;;;28.60;99.90;;;;;;1917991;74;21267;-73
2022/07/11 03:08:56;;;;;;;4.70;1.55;;;28.60;99.90;;;;;;1916249;74;21177;-72
2022/07/11 03:11:27;;;;;;;2.35;1.25;;;28.60;99.90;;;;;;1924715;74;21119;-72
2022/07/11 03:13:58;;;;;;;3.90;1.40;;;28.60;99.90;;;;;;1965357;73;21116;-72
2022/07/11 03:16:30;;;;;;;4.10;1.10;;;28.60;99.90;;;;;;1965190;73;21620;-72
2022/07/11 03:19:01;;;;;;;2.10;1.20;;;28.70;99.90;;;;;;1934668;72;21657;-71
2022/07/11 03:21:33;;;;;;;2.52;1.20;;;28.80;99.90;;;;;;1933515;72;21139;-72
2022/07/11 03:24:04;;;;;;;3.50;1.65;;;28.80;99.90;;;;;;1940108;73;21148;-72
2022/07/11 03:26:35;;;;;;;3.00;1.40;;;28.90;99.90;;;;;;1947597;72;21575;-72
2022/07/11 03:29:08;;;;;;;2.62;1.40;;;29.00;99.90;;;;;;1963541;72;21073;-72
2022/07/11 03:31:39;;;;;;;3.72;1.30;;;29.20;99.90;;;;;;1950860;72;21073;-72
2022/07/11 03:34:09;;;;;;;2.67;1.30;;;29.30;99.90;;;;;;1948923;72;21167;-72
2022/07/11 03:36:40;;;;;;;3.77;1.40;;;29.40;99.90;;;;;;1956274;73;21563;-72
2022/07/11 03:39:11;;;;;;;4.15;1.67;;;29.40;99.70;;;;;;1939643;73;21639;-72
2022/07/11 03:41:43;;;;;;;5.53;1.42;;;29.40;99.80;;;;;;1895363;76;21145;-72
2022/07/11 03:44:14;;;;;;;4.65;1.62;;;29.40;99.90;;;;;;1898140;74;21124;-72
2022/07/11 03:46:45;;;;;;;3.37;1.62;;;29.30;99.90;;;;;;1919084;73;21163;-72
2022/07/11 03:49:17;;;;;;;4.95;1.55;;;29.30;99.90;;;;;;1933543;72;21119;-72
2022/07/11 03:51:47;;;;;;;4.37;1.60;;;29.30;99.90;;;;;;1977108;72;21601;-71
2022/07/11 03:54:20;;;;;;;5.03;1.40;;;29.30;99.70;;;;;;1955547;72;21072;-73
2022/07/11 03:56:51;;;;;;;3.85;1.92;;;29.20;99.60;;;;;;1949983;73;21091;-72
2022/07/11 03:59:22;;;;;;;4.95;2.10;;;29.10;99.70;;;;;;1954828;72;21727;-72
2022/07/11 04:01:53;;;;;;;4.08;2.25;;;29.00;99.70;;;;;;1942208;73;21131;-72
2022/07/11 04:04:24;;;;;;;4.85;1.85;;;28.90;99.60;;;;;;1891071;74;21254;-72
2022/07/11 04:06:55;;;;;;;5.85;1.60;;;28.80;99.60;;;;;;1866941;76;21163;-72
2022/07/11 04:09:26;;;;;;;2.67;1.45;;;28.70;99.40;;;;;;1892315;74;21131;-72
2022/07/11 04:11:57;;;;;;;4.47;1.30;;;28.60;99.30;;;;;;1949014;73;21510;-72
2022/07/11 04:14:29;;;;;;;5.28;1.50;;;28.50;99.40;;;;;;1981605;72;22030;-72
2022/07/11 04:16:59;;;;;;;3.05;1.55;;;28.50;99.40;;;;;;1950291;72;21632;-72
2022/07/11 04:19:31;;;;;;;5.53;1.67;;;28.40;99.30;;;;;;1895591;76;21217;-72
2022/07/11 04:22:02;;;;;;;3.98;1.70;;;28.40;99.20;;;;;;1895255;74;21548;-72
2022/07/11 04:24:36;;;;;;;5.50;1.57;;;28.30;99.60;;;;;;1880564;76;21576;-73
2022/07/11 04:27:07;;;;;;;3.27;1.35;;;28.20;99.90;;;;;;1912093;74;21550;-72
2022/07/11 04:29:38;;;;;;;3.65;1.17;;;28.10;99.90;;;;;;1921902;74;21562;-73
2022/07/11 04:32:09;;;;;;;3.95;1.40;;;28.10;99.90;;;;;;1925001;73;21693;-72
2022/07/11 04:34:40;;;;;;;9.93;2.45;;;28.00;99.90;;;;;;1857999;76;21517;-73
2022/07/11 04:37:12;;;;;;;5.20;1.90;;;28.00;99.90;;;;;;1924800;73;21606;-73
2022/07/11 04:39:47;;;;;;;4.20;2.40;;;28.00;99.90;;;;;;1923691;73;21152;-71
2022/07/11 04:42:19;;;;;;;3.50;2.17;;;27.90;99.90;;;;;;1920378;73;21634;-72
2022/07/11 04:45:02;;;;;;;6.87;2.52;;;27.90;99.90;;;;;;1884167;75;21633;-72
2022/07/11 04:47:32;;;;;;;5.60;2.35;;;27.90;99.90;;;;;;1974708;71;21136;-73
2022/07/11 04:50:04;;;;;;;6.03;2.15;;;27.90;99.90;;;;;;1921165;73;22719;-73
2022/07/11 04:52:35;;;;;;;5.28;1.90;;;27.90;99.90;;;;;;1883205;74;21127;-72
2022/07/11 04:55:06;;;;;;;6.37;1.98;;;27.90;99.90;;;;;;1886470;76;21157;-72
2022/07/11 04:57:37;;;;;;;8.50;6.45;;;27.90;99.90;;;;;;1913745;75;21078;-72
2022/07/11 05:00:09;;;;;;;9.30;2.22;;;28.00;99.90;;;;;;1925684;73;21741;-72
2022/07/11 05:02:40;;;;;;;4.40;2.37;;;28.00;99.90;;;;;;1920862;73;21587;-72
2022/07/11 05:05:11;;;;;;;4.83;2.12;;;28.00;99.90;;;;;;1930518;73;21056;-72
2022/07/11 05:07:42;;;;;;;4.33;2.27;;;28.00;99.90;;;;;;1927880;73;21102;-72
2022/07/11 05:10:13;;;;;;;4.00;2.27;;;28.00;99.90;;;;;;1958809;73;21052;-72
2022/07/11 05:12:44;;;;;;;3.65;2.60;;;28.00;99.90;;;;;;1930814;73;21146;-72
2022/07/11 05:15:15;;;;;;;3.05;2.30;;;27.90;99.90;;;;;;1948398;73;21276;-72
2022/07/11 05:17:46;;;;;;;4.45;2.70;;;27.90;99.90;;;;;;1939143;73;21131;-72
2022/07/11 05:20:18;;;;;;;4.97;2.95;;;27.90;99.90;;;;;;1934257;73;21119;-72
2022/07/11 05:22:49;;;;;;;4.87;2.70;;;27.90;99.90;;;;;;1921097;73;21205;-72
2022/07/11 05:25:19;;;;;;;8.08;4.72;;;28.00;99.90;;;;;;1948245;73;21123;-73
2022/07/11 05:27:50;;;;;;;15.10;8.80;;;28.00;99.90;;;;;;1953083;73;21163;-72
2022/07/11 05:30:22;;;;;;;10.90;7.00;;;28.10;99.90;;;;;;1945122;73;21280;-72
2022/07/11 05:32:53;;;;;;;10.93;6.72;;;28.10;99.90;;;;;;1926861;73;21060;-73
2022/07/11 05:35:25;;;;;;;6.05;3.80;;;28.20;99.90;;;;;;1917854;73;21127;-72
2022/07/11 05:37:56;;;;;;;14.87;8.73;;;28.20;99.90;;;;;;1921723;74;21701;-73
2022/07/11 05:40:26;;;;;;;7.20;4.40;;;28.20;99.90;;;;;;1950654;73;21225;-72
2022/07/11 05:42:57;;;;;;;9.23;6.03;;;28.30;99.90;;;;;;1932586;73;21107;-73
2022/07/11 05:45:29;;;;;;;9.73;4.75;;;28.40;99.90;;;;;;1922758;73;21093;-73
2022/07/11 05:47:59;;;;;;;8.60;5.35;;;28.40;99.90;;;;;;1921910;74;21171;-73
2022/07/11 05:50:31;;;;;;;8.68;5.80;;;28.40;99.90;;;;;;1920378;74;21086;-72
2022/07/11 05:53:03;;;;;;;5.30;3.52;;;28.40;99.90;;;;;;1922703;73;21637;-71
2022/07/11 05:55:34;;;;;;;6.50;4.78;;;28.40;99.90;;;;;;1879206;76;21176;-72
2022/07/11 05:58:05;;;;;;;10.80;5.85;;;28.50;99.90;;;;;;1934878;73;21568;-72
2022/07/11 06:00:35;;;;;;;22.10;16.05;;;28.60;99.90;;;;;;1916939;74;21113;-73
2022/07/11 06:03:07;;;;;;;7.78;3.27;;;28.60;99.90;;;;;;1923628;74;21084;-72
2022/07/11 06:05:38;;;;;;;5.55;3.72;;;28.70;99.90;;;;;;1905463;75;21184;-71
2022/07/11 06:10:41;;;;;;;4.92;3.58;;;28.70;99.90;;;;;;1887547;74;21259;-72
2022/07/11 06:13:12;;;;;;;6.08;2.70;;;28.80;99.90;;;;;;1925562;74;21085;-73
2022/07/11 06:15:44;;;;;;;4.08;2.37;;;28.80;99.90;;;;;;1922062;74;21169;-72
2022/07/11 06:18:15;;;;;;;6.12;2.25;;;28.80;99.90;;;;;;1955435;73;21135;-72
2022/07/11 06:20:46;;;;;;;3.95;2.50;;;28.80;99.90;;;;;;1895411;73;21544;-72
2022/07/11 06:23:18;;;;;;;14.25;10.48;;;28.80;99.90;;;;;;1888924;76;21611;-71
2022/07/11 06:25:49;;;;;;;5.67;3.50;;;28.80;99.90;;;;;;1889582;74;21607;-72
2022/07/11 06:28:20;;;;;;;6.30;3.42;;;28.80;99.90;;;;;;1923970;72;21187;-72
2022/07/11 06:30:51;;;;;;;8.40;5.53;;;28.90;99.90;;;;;;1915047;73;21087;-72
2022/07/11 06:33:22;;;;;;;14.80;9.98;;;28.90;99.90;;;;;;1877763;74;21119;-72
2022/07/11 06:35:54;;;;;;;9.25;5.90;;;28.80;99.90;;;;;;1925933;73;21165;-71
2022/07/11 06:38:25;;;;;;;7.30;3.35;;;28.80;99.90;;;;;;1912527;74;21754;-72
2022/07/11 06:40:56;;;;;;;4.97;2.40;;;28.80;99.90;;;;;;1937365;74;21685;-71
2022/07/11 06:43:28;;;;;;;4.83;2.35;;;28.80;99.90;;;;;;1961827;73;21566;-72
2022/07/11 06:46:00;;;;;;;6.95;2.98;;;28.80;99.90;;;;;;1953909;73;21214;-72
2022/07/11 06:48:31;;;;;;;7.17;3.00;;;28.80;99.90;;;;;;1949578;73;21150;-72
2022/07/11 06:51:03;;;;;;;10.82;3.72;;;28.80;99.90;;;;;;1940452;73;21728;-72
2022/07/11 06:53:53;;;;;;;5.83;3.00;;;28.80;99.90;;;;;;1960526;73;21129;-73
2022/07/11 06:56:24;;;;;;;6.60;3.00;;;28.70;99.90;;;;;;1966002;73;21590;-72
2022/07/11 06:58:56;;;;;;;6.97;4.15;;;28.70;99.90;;;;;;1955594;73;21149;-72
2022/07/11 07:01:27;;;;;;;7.12;3.45;;;28.70;99.90;;;;;;1930442;73;21174;-72
2022/07/11 07:03:58;;;;;;;7.97;3.70;;;28.70;99.90;;;;;;1931414;73;21602;-73
2022/07/11 07:06:29;;;;;;;6.92;3.60;;;28.60;99.90;;;;;;1944791;73;21186;-72
2022/07/11 07:09:03;;;;;;;6.53;3.12;;;28.60;99.90;;;;;;1931476;73;21095;-73
2022/07/11 07:11:33;;;;;;;6.33;2.80;;;28.60;99.90;;;;;;1946647;73;21142;-72
2022/07/11 07:14:04;;;;;;;6.12;3.40;;;28.60;99.90;;;;;;1959417;73;21660;-73
2022/07/11 07:16:35;;;;;;;6.40;3.90;;;28.60;99.90;;;;;;1933856;73;21525;-73
2022/07/11 07:19:06;;;;;;;6.15;4.30;;;28.60;99.90;;;;;;1931378;74;21083;-73
2022/07/11 07:21:37;;;;;;;8.73;5.22;;;28.50;99.90;;;;;;1942488;73;21084;-73
2022/07/11 07:24:08;;;;;;;7.87;4.75;;;28.50;99.90;;;;;;1934531;73;21147;-72
2022/07/11 07:26:40;;;;;;;8.55;4.10;;;28.50;99.90;;;;;;1926971;74;21103;-72
2022/07/11 07:29:11;;;;;;;7.12;4.45;;;28.50;99.90;;;;;;1951255;73;21138;-72
2022/07/11 07:31:42;;;;;;;8.73;5.67;;;28.50;99.90;;;;;;1963555;73;21126;-72
2022/07/11 07:34:13;;;;;;;9.15;6.40;;;28.50;99.90;;;;;;1960581;73;21186;-72
2022/07/11 07:36:44;;;;;;;8.48;5.33;;;28.50;99.90;;;;;;1921224;74;21639;-72
2022/07/11 07:39:15;;;;;;;8.50;5.60;;;28.40;99.90;;;;;;1917990;74;21052;-72
2022/07/11 07:41:46;;;;;;;8.20;5.20;;;28.40;99.90;;;;;;1917984;75;21539;-72
2022/07/11 07:44:17;;;;;;;6.95;4.22;;;28.40;99.90;;;;;;1893012;75;21166;-72
2022/07/11 07:46:48;;;;;;;8.50;4.90;;;28.40;99.90;;;;;;1886326;76;21580;-72
2022/07/11 07:49:18;;;;;;;9.35;5.20;;;28.40;99.90;;;;;;1897939;73;21115;-72
2022/07/11 07:51:50;;;;;;;6.97;5.17;;;28.40;99.90;;;;;;1888699;75;21135;-72
2022/07/11 07:54:21;;;;;;;8.08;5.30;;;28.40;99.90;;;;;;1917415;73;21095;-73
2022/07/11 07:56:52;;;;;;;5.70;4.75;;;28.30;99.90;;;;;;1952230;73;21061;-72
2022/07/11 07:59:24;;;;;;;8.10;5.03;;;28.30;99.90;;;;;;1938031;73;21696;-72
2022/07/11 08:01:55;;;;;;;8.83;5.17;;;28.30;99.90;;;;;;1921260;73;22178;-72
2022/07/11 08:04:27;;;;;;;7.20;4.40;;;28.30;99.90;;;;;;1922892;73;21091;-72
2022/07/11 08:06:59;;;;;;;7.12;4.40;;;28.30;99.90;;;;;;1946696;73;21693;-71
2022/07/11 08:09:30;;;;;;;6.20;4.22;;;28.30;99.90;;;;;;1947287;73;21111;-72
2022/07/11 08:12:01;;;;;;;8.58;5.10;;;28.30;99.90;;;;;;1924636;73;21209;-69
2022/07/11 08:14:31;;;;;;;7.42;3.92;;;28.30;99.90;;;;;;1949112;73;21224;-71
2022/07/11 08:17:02;;;;;;;7.75;4.30;;;28.30;99.90;;;;;;1928752;73;21506;-71
2022/07/11 08:19:33;;;;;;;10.72;4.95;;;28.30;99.90;;;;;;1950934;73;21532;-72
2022/07/11 08:22:05;;;;;;;8.83;4.83;;;28.30;99.90;;;;;;1915447;75;21626;-72
2022/07/11 08:24:37;;;;;;;5.85;4.05;;;28.30;99.90;;;;;;1963620;72;21505;-72
2022/07/11 08:27:08;;;;;;;4.97;3.42;;;28.30;99.90;;;;;;1942535;72;21167;-71
2022/07/11 08:29:40;;;;;;;6.05;3.30;;;28.30;99.90;;;;;;1986221;70;21134;-72
2022/07/11 08:32:12;;;;;;;8.90;3.47;;;28.30;99.90;;;;;;1951814;72;21150;-71
2022/07/11 08:34:43;;;;;;;6.28;3.50;;;28.30;99.90;;;;;;1934680;72;21124;-71
2022/07/11 08:37:14;;;;;;;5.03;3.15;;;28.30;99.90;;;;;;1945895;72;21120;-71
2022/07/11 08:39:45;;;;;;;5.03;2.70;;;28.30;99.90;;;;;;1967442;72;21124;-73
2022/07/11 08:42:20;;;;;;;7.50;3.30;;;28.40;99.90;;;;;;1958059;72;21384;-72
2022/07/11 08:44:51;;;;;;;9.53;3.40;;;28.40;99.90;;;;;;1954585;72;21203;-71
2022/07/11 08:47:22;;;;;;;5.95;3.22;;;28.40;99.90;;;;;;1953434;72;21134;-71
2022/07/11 08:49:54;;;;;;;4.45;2.72;;;28.40;99.90;;;;;;1955391;72;21233;-71
2022/07/11 08:52:25;;;;;;;6.17;2.85;;;28.40;99.90;;;;;;1962285;72;21073;-71
2022/07/11 08:54:57;;;;;;;6.25;2.90;;;28.40;99.90;;;;;;1990599;71;21130;-70
2022/07/11 08:57:28;;;;;;;6.15;2.65;;;28.40;99.90;;;;;;1979033;72;21164;-72
2022/07/11 09:00:00;;;;;;;4.92;2.87;;;28.40;99.90;;;;;;1957952;73;21062;-71
2022/07/11 09:02:33;;;;;;;4.80;2.90;;;28.40;99.90;;;;;;1957699;72;21178;-72
2022/07/11 09:05:08;;;;;;;4.87;2.80;;;28.40;99.90;;;;;;1962709;72;21538;-71
2022/07/11 09:07:40;;;;;;;6.75;2.87;;;28.50;99.90;;;;;;1967771;71;21134;-71
2022/07/11 09:10:11;;;;;;;3.75;2.55;;;28.50;99.90;;;;;;1956350;72;21094;-71
2022/07/11 09:12:44;;;;;;;6.03;2.70;;;28.50;99.90;;;;;;1957730;72;21111;-72
2022/07/11 09:15:18;;;;;;;4.55;2.25;;;28.50;99.90;;;;;;1955059;73;21633;-72
2022/07/11 09:17:49;;;;;;;4.50;2.35;;;28.50;99.90;;;;;;1953651;72;21599;-72
2022/07/11 09:20:20;;;;;;;3.92;2.50;;;28.50;99.90;;;;;;1957799;72;21199;-72
2022/07/11 09:25:32;;;;;;;2.58;2.25;;;28.60;99.90;;;;;;1979448;71;21559;-71
2022/07/11 09:28:08;;;;;;;5.03;3.00;;;28.50;99.90;;;;;;1983424;72;21123;-72
2022/07/11 09:30:35;;;;;;;7.25;5.62;;;28.50;99.90;;;;;;1956295;72;21604;-71
2022/07/11 09:33:12;;;;;;;4.15;2.75;;;28.60;99.90;;;;;;1960171;72;21179;-72
2022/07/11 09:35:42;;;;;;;6.12;2.70;;;28.60;99.90;;;;;;1958529;72;21124;-72
2022/07/11 09:38:16;;;;;;;5.37;2.52;;;28.60;99.90;;;;;;1955747;72;21618;-71
2022/07/11 09:40:48;;;;;;;7.28;2.92;;;28.60;99.90;;;;;;1951036;72;21073;-70
2022/07/11 09:43:22;;;;;;;7.58;5.05;;;28.60;99.90;;;;;;1975262;72;21120;-71
2022/07/11 09:45:55;;;;;;;5.10;2.02;;;28.60;99.90;;;;;;1983601;70;21148;-72
2022/07/11 09:48:28;;;;;;;3.92;1.85;;;28.60;99.90;;;;;;1981887;72;21057;-71
2022/07/11 09:51:02;;;;;;;6.17;2.65;;;28.50;99.90;;;;;;1986257;71;21120;-73
2022/07/11 09:53:32;;;;;;;7.10;2.00;;;28.30;99.90;;;;;;1952091;72;21209;-73
2022/07/11 09:56:05;;;;;;;4.30;1.47;;;28.20;99.90;;;;;;1950930;73;21189;-72
2022/07/11 09:58:37;;;;;;;5.70;1.42;;;28.00;99.90;;;;;;1950460;72;21663;-73
2022/07/11 10:01:08;;;;;;;4.00;1.45;;;27.90;99.90;;;;;;1951262;72;21142;-72
2022/07/11 10:03:39;;;;;;;4.70;2.12;;;27.70;99.90;;;;;;1950855;72;21669;-72
2022/07/11 10:06:12;;;;;;;10.30;2.30;;;27.60;99.90;;;;;;1947602;73;21143;-71
2022/07/11 10:08:42;;;;;;;5.33;1.72;;;27.40;99.90;;;;;;1949730;73;21120;-72
2022/07/11 10:11:14;;;;;;;4.65;2.02;;;27.30;99.90;;;;;;1970167;72;21226;-72
2022/07/11 10:13:45;;;;;;;6.62;2.42;;;27.10;99.90;;;;;;1969873;72;21186;-72
2022/07/11 10:16:17;;;;;;;7.58;2.35;;;27.00;99.90;;;;;;1947753;72;21556;-73
2022/07/11 10:18:51;;;;;;;18.70;8.98;;;26.90;99.90;;;;;;1944931;72;21506;-72
2022/07/11 10:21:24;;;;;;;8.18;2.70;;;26.80;99.90;;;;;;1960152;72;21160;-71
2022/07/11 10:23:59;;;;;;;9.43;1.92;;;26.70;99.90;;;;;;1979264;72;21143;-73
2022/07/11 10:26:31;;;;;;;6.33;1.95;;;26.60;99.90;;;;;;1950255;72;21743;-71
2022/07/11 10:29:03;;;;;;;5.47;1.95;;;26.50;99.90;;;;;;1947962;73;21605;-73
2022/07/11 10:31:34;;;;;;;6.90;2.10;;;26.40;99.90;;;;;;1960397;72;21161;-72
2022/07/11 10:34:19;;;;;;;6.97;2.00;;;26.40;99.90;;;;;;1958723;72;21179;-72
2022/07/11 10:36:43;;;;;;;6.97;2.27;;;26.40;99.90;;;;;;1946527;73;21125;-72
2022/07/11 10:39:18;;;;;;;7.25;2.27;;;26.30;99.90;;;;;;1938304;73;21125;-72
2022/07/11 10:41:49;;;;;;;5.85;1.75;;;26.40;99.90;;;;;;1958253;73;21132;-71
2022/07/11 10:44:21;;;;;;;7.83;2.40;;;26.20;99.90;;;;;;1935789;73;21630;-72
2022/07/11 10:46:52;;;;;;;5.10;1.77;;;26.10;99.90;;;;;;1886852;75;21237;-72
2022/07/11 10:49:25;;;;;;;6.67;2.10;;;26.00;99.90;;;;;;1899099;73;21584;-72
2022/07/11 10:51:59;;;;;;;8.13;2.15;;;25.90;99.90;;;;;;1926671;74;21529;-72
2022/07/11 10:54:34;;;;;;;5.42;1.60;;;25.80;99.90;;;;;;1913160;75;21168;-72
2022/07/11 10:57:07;;;;;;;6.78;2.58;;;25.70;99.90;;;;;;1935710;73;21543;-72
2022/07/11 10:59:40;;;;;;;4.25;1.72;;;25.50;99.90;;;;;;1949579;73;21701;-73
2022/07/11 11:02:33;;;;;;;5.72;2.27;;;25.50;99.90;;;;;;1895572;74;21072;-72
2022/07/11 11:05:05;;;;;;;6.80;2.65;;;25.40;99.90;;;;;;1810440;78;21662;-71
2022/07/11 11:07:40;;;;;;;5.90;1.87;;;25.40;99.90;;;;;;1869282;77;21179;-72
2022/07/11 11:10:14;;;;;;;6.60;2.33;;;25.30;99.90;;;;;;1869106;77;21615;-72
2022/07/11 11:12:47;;;;;;;5.80;2.10;;;25.30;99.90;;;;;;1868524;77;21623;-72
2022/07/11 11:15:21;;;;;;;6.17;2.50;;;25.30;99.90;;;;;;1868010;77;21132;-71
2022/07/11 11:17:52;;;;;;;5.20;2.45;;;25.30;99.90;;;;;;1867798;75;21647;-81
2022/07/11 11:20:26;;;;;;;5.45;2.45;;;25.20;99.90;;;;;;1867794;77;21550;-81
2022/07/11 11:23:00;;;;;;;6.08;3.00;;;25.20;99.90;;;;;;1867806;77;21254;-79
2022/07/11 11:25:32;;;;;;;7.83;3.77;;;25.20;99.90;;;;;;1867878;77;21156;-80
2022/07/11 11:28:05;;;;;;;7.00;4.50;;;25.30;99.90;;;;;;1869011;77;21163;-80
2022/07/11 11:30:37;;;;;;;7.95;4.72;;;25.30;99.90;;;;;;1869302;77;21604;-80
2022/07/11 11:33:10;;;;;;;9.00;4.00;;;25.30;99.90;;;;;;1869081;75;21266;-79
2022/07/11 11:35:41;;;;;;;9.20;4.10;;;25.40;99.90;;;;;;1853488;77;21109;-78
2022/07/11 11:38:13;;;;;;;9.68;4.90;;;25.30;99.90;;;;;;1858146;77;21199;-80
2022/07/11 11:40:46;;;;;;;9.28;4.10;;;25.30;99.90;;;;;;1857227;77;21180;-81
2022/07/11 11:43:19;;;;;;;7.55;4.87;;;25.40;99.90;;;;;;1832255;77;21811;-83
2022/07/11 11:45:52;;;;;;;7.97;4.15;;;25.40;99.90;;;;;;1828236;77;21173;-82
2022/07/11 11:48:25;;;;;;;8.05;4.28;;;25.40;99.90;;;;;;1823802;78;21185;-81
2022/07/11 11:50:59;;;;;;;7.60;4.10;;;25.40;99.90;;;;;;1825461;77;21185;-81
2022/07/11 11:53:31;;;;;;;8.03;4.10;;;25.40;99.90;;;;;;1824692;76;21115;-81
2022/07/11 11:56:03;;;;;;;8.63;3.70;;;25.40;99.90;;;;;;1856865;76;21269;-81
2022/07/11 11:58:34;;;;;;;7.28;3.22;;;25.40;99.90;;;;;;1865759;76;22387;-81
2022/07/11 12:01:05;;;;;;;6.92;2.90;;;25.30;99.90;;;;;;1815527;77;21089;-81
2022/07/11 12:03:39;;;;;;;8.93;3.47;;;25.30;99.90;;;;;;1853114;77;21085;-81
2022/07/11 12:06:10;;;;;;;5.50;3.00;;;25.30;99.90;;;;;;1814588;77;21615;-81
2022/07/11 12:08:41;;;;;;;6.47;3.05;;;25.20;99.90;;;;;;1855221;76;21129;-81
2022/07/11 12:11:14;;;;;;;6.12;3.60;;;25.20;99.90;;;;;;1856174;76;21252;-80
2022/07/11 12:13:45;;;;;;;8.13;3.35;;;25.20;99.90;;;;;;1859474;76;21610;-81
2022/07/11 12:18:53;;;;;;;10.32;4.00;;;25.30;99.90;;;;;;1857101;76;21566;-81
2022/07/11 12:21:24;;;;;;;7.37;3.47;;;25.20;99.90;;;;;;1856588;76;21127;-81
2022/07/11 12:23:56;;;;;;;5.83;3.50;;;25.30;99.90;;;;;;1862283;76;21181;-82
2022/07/11 12:26:30;;;;;;;6.78;3.33;;;25.20;99.90;;;;;;1873836;76;21084;-80
2022/07/11 12:29:04;;;;;;;5.75;3.15;;;25.20;99.90;;;;;;1850366;77;21154;-79
2022/07/11 12:31:39;;;;;;;7.05;2.92;;;25.20;99.90;;;;;;1875089;76;21083;-79
2022/07/11 12:34:10;;;;;;;5.42;2.50;;;25.20;99.90;;;;;;1875379;75;21621;-79
2022/07/11 12:36:41;;;;;;;5.65;2.77;;;25.20;99.90;;;;;;1822198;79;21197;-76
2022/07/11 12:39:15;;;;;;;4.95;2.95;;;25.30;99.90;;;;;;1858027;75;21663;-76
2022/07/11 12:41:46;;;;;;;5.45;3.25;;;25.20;99.90;;;;;;1841835;76;21600;-78
2022/07/11 12:46:53;;;;;;;5.97;3.08;;;25.30;99.90;;;;;;1856932;76;21142;-77
2022/07/11 12:49:26;;;;;;;5.20;2.98;;;25.30;99.90;;;;;;1844368;77;21626;-78
2022/07/11 12:51:58;;;;;;;4.62;2.70;;;25.30;99.90;;;;;;1846734;77;21622;-78
2022/07/11 12:54:31;;;;;;;5.17;2.95;;;25.30;99.90;;;;;;1813936;79;21145;-77
2022/07/11 12:57:03;;;;;;;7.67;2.98;;;25.30;99.90;;;;;;1838862;77;21178;-77
2022/07/11 12:59:35;;;;;;;5.58;2.77;;;25.40;99.90;;;;;;1838563;77;21166;-79
2022/07/11 13:02:10;;;;;;;6.62;2.40;;;25.40;99.90;;;;;;1857577;77;21190;-78
2022/07/11 13:04:46;;;;;;;6.00;2.15;;;25.40;99.90;;;;;;1855020;76;21491;-77
2022/07/11 13:09:52;;;;;;;4.08;1.92;;;25.40;99.90;;;;;;1836476;76;21181;-78
2022/07/11 13:12:23;;;;;;;3.90;1.87;;;25.40;99.90;;;;;;1835296;77;21176;-77
2022/07/11 13:17:27;;;;;;;6.30;2.30;;;25.40;99.90;;;;;;1815318;77;21594;-75
2022/07/11 13:20:03;;;;;;;4.12;2.17;;;25.40;99.90;;;;;;1816908;79;22024;-77
2022/07/11 13:22:32;;;;;;;3.22;2.02;;;25.50;99.90;;;;;;1854882;77;21161;-76
2022/07/11 13:25:05;;;;;;;4.15;1.65;;;25.50;99.90;;;;;;1853920;77;21568;-77